Time;durP1;ratioP1;P1;durP2;ratioP2;P2;SDS_P1;SDS_P2;PMS_P1;PMS_P2;Temp;Humidity;BMP_temperature;BMP_pressure;BME280_temperature;BME280_humidity;BME280_pressure;Samples;Min_cycle;Max_cycle;Signal;HPM_P1;HPM_P2
2021/11/29 00:02:13;;;;;;;14.95;6.10;;;;;;;16.46;64.33;99991.55;1731516;81;21562;-62
2021/11/29 00:04:40;;;;;;;9.95;5.35;;;;;;;16.47;64.28;99976.61;1732360;81;21478;-62
2021/11/29 00:07:08;;;;;;;10.58;5.67;;;;;;;16.48;64.21;99980.94;1732130;81;21609;-65
2021/11/29 00:09:34;;;;;;;12.60;5.22;;;;;;;16.49;64.27;99982.19;1736080;81;20995;-62
2021/11/29 00:12:04;;;;;;;12.10;4.90;;;;;;;16.52;64.21;99975.92;1735301;81;21063;-61
2021/11/29 00:14:30;;;;;;;9.73;5.25;;;;;;;16.54;64.11;99980.62;1734074;81;21507;-63
2021/11/29 00:16:58;;;;;;;12.50;5.15;;;;;;;16.55;64.10;99979.70;1733446;81;21521;-61
2021/11/29 00:19:24;;;;;;;8.88;5.67;;;;;;;16.55;64.03;99975.76;1733071;82;21042;-63
2021/11/29 00:21:53;;;;;;;10.60;4.80;;;;;;;16.57;64.00;99980.45;1700613;84;21098;-66
2021/11/29 00:24:19;;;;;;;8.85;4.17;;;;;;;16.59;63.91;99986.46;1735900;81;21496;-70
2021/11/29 00:26:45;;;;;;;13.68;4.78;;;;;;;16.60;63.78;99998.64;1697859;84;20986;-63
2021/11/29 00:29:13;;;;;;;10.70;4.10;;;;;;;16.59;63.74;99987.78;1697939;83;21054;-67
2021/11/29 00:31:39;;;;;;;10.78;4.50;;;;;;;16.60;63.72;99980.26;1697789;83;21041;-61
2021/11/29 00:34:06;;;;;;;13.18;5.03;;;;;;;16.60;63.66;99971.06;1697868;83;21031;-66
2021/11/29 00:36:34;;;;;;;10.72;3.90;;;;;;;16.59;63.62;99968.08;1697560;83;21026;-65
2021/11/29 00:39:00;;;;;;;11.93;4.45;;;;;;;16.59;63.63;99953.63;1699278;83;21018;-68
2021/11/29 00:41:28;;;;;;;11.05;4.00;;;;;;;16.59;63.52;99965.45;1736144;81;21515;-64
2021/11/29 00:43:56;;;;;;;9.80;3.60;;;;;;;16.59;63.51;99954.94;1735133;81;21085;-64
2021/11/29 00:46:22;;;;;;;12.80;3.70;;;;;;;16.59;63.47;99960.20;1732374;81;21113;-66
2021/11/29 00:48:49;;;;;;;13.28;4.05;;;;;;;16.57;63.35;99956.81;1733343;81;21002;-70
2021/11/29 00:51:15;;;;;;;10.95;4.30;;;;;;;16.56;63.36;99937.58;1736846;82;21502;-68
2021/11/29 00:53:43;;;;;;;11.30;4.00;;;;;;;16.57;63.31;99943.69;1746857;81;21488;-68
2021/11/29 00:56:09;;;;;;;14.28;3.22;;;;;;;16.56;63.30;99941.98;1741702;81;21049;-76
2021/11/29 00:58:37;;;;;;;12.78;3.65;;;;;;;16.57;63.13;99934.49;1702275;83;21089;-72
2021/11/29 01:01:04;;;;;;;12.58;3.90;;;;;;;16.57;63.03;99930.55;1734707;81;21050;-74
2021/11/29 01:03:32;;;;;;;13.50;4.20;;;;;;;16.56;63.00;99923.59;1734069;81;21483;-71
2021/11/29 01:05:59;;;;;;;12.60;3.37;;;;;;;16.55;62.93;99914.86;1731332;81;21066;-73
2021/11/29 01:08:27;;;;;;;8.93;3.50;;;;;;;16.53;62.94;99900.13;1720034;81;21078;-74
2021/11/29 01:10:54;;;;;;;12.68;3.65;;;;;;;16.53;62.98;99897.50;1735303;81;21495;-75
2021/11/29 01:13:20;;;;;;;10.72;3.42;;;;;;;16.52;62.97;99889.26;1733579;81;20983;-74
2021/11/29 01:15:48;;;;;;;10.93;3.70;;;;;;;16.51;62.95;99887.55;1731749;81;20975;-76
2021/11/29 01:18:15;;;;;;;13.55;4.30;;;;;;;16.51;62.97;99886.23;1731708;81;21460;-77
2021/11/29 01:20:43;;;;;;;13.58;3.27;;;;;;;16.50;62.95;99881.48;1731337;81;21047;-77
2021/11/29 01:23:11;;;;;;;10.05;3.60;;;;;;;16.50;62.87;99884.56;1731620;81;21030;-76
2021/11/29 01:25:38;;;;;;;9.43;3.30;;;;;;;16.49;62.93;99864.45;1732475;81;21051;-75
2021/11/29 01:28:05;;;;;;;12.80;3.67;;;;;;;16.48;62.88;99857.52;1700814;84;21006;-79
2021/11/29 01:30:33;;;;;;;10.72;3.17;;;;;;;16.49;62.90;99843.44;1734407;81;21122;-76
2021/11/29 01:32:59;;;;;;;13.90;3.77;;;;;;;16.49;62.89;99838.19;1699266;84;21041;-79
2021/11/29 01:35:27;;;;;;;13.43;3.33;;;;;;;16.48;62.86;99821.61;1698935;84;21065;-80
2021/11/29 01:37:54;;;;;;;14.75;4.30;;;;;;;16.49;62.84;99813.23;1733508;82;21026;-78
2021/11/29 01:40:21;;;;;;;21.23;4.10;;;;;;;16.49;62.81;99805.36;1701140;84;21503;-73
2021/11/29 01:43:06;;;;;;;15.60;3.55;;;;;;;16.49;62.82;99797.05;1732556;81;21034;-76
2021/11/29 01:45:43;;;;;;;13.60;4.12;;;;;;;16.49;62.83;99793.55;1695178;84;21539;-72
2021/11/29 01:48:10;;;;;;;12.73;3.65;;;;;;;16.49;62.82;99793.55;1732078;81;21049;-70
2021/11/29 01:50:39;;;;;;;11.40;3.90;;;;;;;16.48;62.89;99803.23;1728781;81;21031;-69
2021/11/29 01:53:08;;;;;;;13.75;3.95;;;;;;;16.49;62.83;99817.17;1715940;81;21742;-68
2021/11/29 01:55:36;;;;;;;14.33;4.65;;;;;;;16.50;62.81;99813.66;1724466;81;21070;-74
2021/11/29 01:58:04;;;;;;;16.10;5.17;;;;;;;16.50;62.80;99815.83;1725089;82;20994;-68
2021/11/29 02:00:37;;;;;;;17.37;4.58;;;;;;;16.49;62.74;99804.94;1726225;81;21015;-70
2021/11/29 02:03:03;;;;;;;14.65;4.12;;;;;;;16.50;62.69;99805.78;1726134;81;21563;-74
2021/11/29 02:05:30;;;;;;;16.42;4.90;;;;;;;16.51;62.70;99799.58;1725040;81;21570;-68
2021/11/29 02:08:00;;;;;;;17.05;4.03;;;;;;;16.50;62.69;99790.03;1713621;81;21498;-68
2021/11/29 02:10:27;;;;;;;14.35;4.30;;;;;;;16.51;62.69;99789.08;1719706;81;21059;-75
2021/11/29 02:12:54;;;;;;;13.62;4.95;;;;;;;16.51;62.64;99803.06;1723941;81;21043;-69
2021/11/29 02:15:21;;;;;;;16.70;4.80;;;;;;;16.51;62.59;99794.33;1724412;81;21550;-68
2021/11/29 02:17:48;;;;;;;16.05;4.40;;;;;;;16.51;62.60;99791.24;1725157;82;21015;-70
2021/11/29 02:20:16;;;;;;;14.33;4.55;;;;;;;16.51;62.57;99795.18;1726187;81;21030;-66
2021/11/29 02:22:44;;;;;;;16.45;4.65;;;;;;;16.54;62.50;99798.09;1726041;81;21039;-63
2021/11/29 02:25:13;;;;;;;16.82;5.25;;;;;;;16.55;62.48;99789.30;1724284;81;21066;-67
2021/11/29 02:27:42;;;;;;;22.67;4.75;;;;;;;16.57;62.39;99790.05;1723014;81;21015;-64
2021/11/29 02:30:11;;;;;;;12.90;4.17;;;;;;;16.57;62.32;99776.91;1722244;81;21007;-70
2021/11/29 02:32:37;;;;;;;15.18;5.17;;;;;;;16.58;62.29;99772.87;1722923;81;21594;-69
2021/11/29 02:35:05;;;;;;;17.50;5.05;;;;;;;16.61;62.25;99774.47;1718369;82;21019;-64
2021/11/29 02:37:33;;;;;;;13.15;4.67;;;;;;;16.61;62.23;99771.84;1725901;81;21082;-70
2021/11/29 02:39:59;;;;;;;15.45;3.92;;;;;;;16.62;62.21;99764.33;1722840;81;20979;-69
2021/11/29 02:42:26;;;;;;;24.70;6.00;;;;;;;16.64;62.13;99774.27;1723850;81;21562;-62
2021/11/29 02:44:52;;;;;;;14.13;4.70;;;;;;;16.66;62.12;99767.13;1735408;81;21003;-63
2021/11/29 02:47:19;;;;;;;14.70;5.12;;;;;;;16.67;62.08;99763.58;1695650;84;21499;-63
2021/11/29 02:49:45;;;;;;;13.30;5.28;;;;;;;16.68;62.07;99760.00;1698048;84;21046;-62
2021/11/29 02:52:14;;;;;;;18.87;4.60;;;;;;;16.68;62.02;99752.97;1700785;84;20971;-65
2021/11/29 02:54:44;;;;;;;14.90;5.15;;;;;;;16.69;62.06;99749.88;1697938;84;21026;-63
2021/11/29 02:57:14;;;;;;;19.75;4.97;;;;;;;16.70;62.03;99739.73;1697652;83;21579;-70
2021/11/29 02:59:41;;;;;;;18.80;4.85;;;;;;;16.71;62.02;99730.93;1697636;84;21082;-65
2021/11/29 03:02:17;;;;;;;15.58;4.75;;;;;;;16.72;62.01;99722.09;1697870;83;21017;-64
2021/11/29 03:04:45;;;;;;;16.07;5.03;;;;;;;16.72;62.00;99701.08;1692526;83;21018;-62
2021/11/29 03:07:13;;;;;;;14.55;4.35;;;;;;;16.73;61.96;99690.95;1699489;83;21026;-65
2021/11/29 03:09:40;;;;;;;15.23;4.97;;;;;;;16.72;61.92;99685.31;1735351;82;21022;-60
2021/11/29 03:12:09;;;;;;;13.40;5.03;;;;;;;16.74;61.85;99684.75;1700697;84;21010;-67
2021/11/29 03:14:37;;;;;;;11.30;5.35;;;;;;;16.74;61.84;99683.44;1737822;81;21090;-62
2021/11/29 03:17:05;;;;;;;15.38;5.70;;;;;;;16.73;61.86;99679.14;1698778;84;21010;-67
2021/11/29 03:19:36;;;;;;;22.98;5.33;;;;;;;16.74;61.84;99662.42;1697556;83;21046;-60
2021/11/29 03:22:06;;;;;;;19.30;6.03;;;;;;;16.73;61.84;99660.75;1697608;83;21017;-67
2021/11/29 03:24:33;;;;;;;20.25;5.47;;;;;;;16.74;61.87;99658.48;1697777;83;21518;-59
2021/11/29 03:26:59;;;;;;;11.60;4.58;;;;;;;16.74;61.84;99665.89;1698288;83;21002;-59
2021/11/29 03:29:27;;;;;;;13.05;4.95;;;;;;;16.75;61.85;99659.72;1698440;83;21066;-65
2021/11/29 03:31:55;;;;;;;13.95;4.47;;;;;;;16.76;61.82;99653.50;1732513;81;21464;-63
2021/11/29 03:34:23;;;;;;;19.48;6.70;;;;;;;16.77;61.82;99646.02;1729189;81;21519;-67
2021/11/29 03:36:50;;;;;;;17.77;5.50;;;;;;;16.77;61.81;99637.28;1733507;81;21026;-63
2021/11/29 03:39:25;;;;;;;17.30;5.45;;;;;;;16.78;61.86;99635.01;1733176;81;21042;-64
2021/11/29 03:41:53;;;;;;;17.82;5.22;;;;;;;16.77;61.87;99633.34;1733738;81;21010;-69
2021/11/29 03:44:19;;;;;;;15.03;5.25;;;;;;;16.77;61.88;99634.19;1694687;84;21006;-61
2021/11/29 03:46:47;;;;;;;15.85;5.12;;;;;;;16.78;61.90;99637.63;1736573;81;21065;-60
2021/11/29 03:49:14;;;;;;;18.00;5.20;;;;;;;16.78;61.91;99635.01;1735170;81;21034;-62
2021/11/29 03:51:41;;;;;;;13.25;5.45;;;;;;;16.78;61.91;99625.35;1730766;82;21066;-64
2021/11/29 03:54:08;;;;;;;18.17;5.55;;;;;;;16.78;61.92;99638.95;1689459;84;21015;-60
2021/11/29 03:56:34;;;;;;;20.40;5.42;;;;;;;16.79;61.89;99639.34;1697861;84;21018;-59
2021/11/29 03:59:01;;;;;;;16.40;5.53;;;;;;;16.79;61.90;99640.65;1700165;84;21010;-67
2021/11/29 04:01:28;;;;;;;18.42;5.40;;;;;;;16.80;61.89;99630.50;1696631;84;21058;-64
2021/11/29 04:03:56;;;;;;;20.48;5.10;;;;;;;16.80;61.86;99627.87;1701130;84;20959;-57
2021/11/29 04:06:23;;;;;;;21.62;5.87;;;;;;;16.80;61.88;99617.36;1699438;84;21034;-66
2021/11/29 04:08:51;;;;;;;20.23;6.05;;;;;;;16.80;61.87;99615.59;1698142;83;21105;-66
2021/11/29 04:11:17;;;;;;;15.60;5.85;;;;;;;16.81;61.88;99615.13;1698039;83;21569;-59
2021/11/29 04:13:44;;;;;;;19.37;5.25;;;;;;;16.80;61.90;99605.54;1697979;84;21053;-59
2021/11/29 04:16:13;;;;;;;17.67;5.15;;;;;;;16.82;61.93;99606.28;1697819;84;21065;-64
2021/11/29 04:18:41;;;;;;;20.65;5.95;;;;;;;16.83;61.88;99600.95;1698995;84;21038;-59
2021/11/29 04:21:09;;;;;;;17.57;6.05;;;;;;;16.84;61.88;99604.39;1694847;82;21526;-62
2021/11/29 04:23:36;;;;;;;22.17;6.15;;;;;;;16.84;61.92;99603.08;1701032;84;21530;-59
2021/11/29 04:26:03;;;;;;;28.27;6.85;;;;;;;16.85;61.98;99600.38;1699350;84;21745;-60
2021/11/29 04:28:31;;;;;;;23.77;6.05;;;;;;;16.86;61.92;99591.54;1698874;84;21114;-61
2021/11/29 04:30:57;;;;;;;19.32;5.90;;;;;;;16.89;61.92;99594.44;1699943;84;21034;-61
2021/11/29 04:33:24;;;;;;;17.25;5.37;;;;;;;16.89;61.93;99590.50;1701108;84;21495;-62
2021/11/29 04:35:50;;;;;;;18.27;5.80;;;;;;;16.88;61.96;99590.11;1701053;84;21002;-60
2021/11/29 04:38:16;;;;;;;22.20;6.75;;;;;;;16.87;62.04;99577.94;1698740;84;21026;-64
2021/11/29 04:40:43;;;;;;;25.90;6.45;;;;;;;16.86;62.06;99563.95;1698103;84;21510;-63
2021/11/29 04:43:10;;;;;;;19.55;5.67;;;;;;;16.86;62.10;99557.38;1697777;84;21018;-60
2021/11/29 04:45:38;;;;;;;25.90;7.10;;;;;;;16.85;62.16;99566.69;1698004;84;21034;-60
2021/11/29 04:48:05;;;;;;;20.17;6.45;;;;;;;16.86;62.22;99558.69;1697900;84;21022;-63
2021/11/29 04:50:31;;;;;;;25.50;6.60;;;;;;;16.86;62.30;99570.98;1700305;84;21538;-61
2021/11/29 04:52:58;;;;;;;19.55;6.40;;;;;;;16.86;62.31;99570.52;1697448;84;21065;-60
2021/11/29 04:55:24;;;;;;;23.47;5.90;;;;;;;16.86;62.32;99560.01;1734775;82;21043;-63
2021/11/29 04:57:51;;;;;;;27.45;6.60;;;;;;;16.85;62.34;99562.75;1735858;81;21019;-61
2021/11/29 05:00:18;;;;;;;24.07;6.92;;;;;;;16.87;62.38;99559.08;1721931;81;21035;-63
2021/11/29 05:02:47;;;;;;;26.05;7.37;;;;;;;16.89;62.30;99558.97;1734945;81;21067;-67
2021/11/29 05:05:16;;;;;;;25.23;7.08;;;;;;;16.91;62.27;99568.91;1736372;81;21035;-59
2021/11/29 05:07:44;;;;;;;28.20;7.47;;;;;;;16.91;62.32;99582.05;1696703;84;21614;-61
2021/11/29 05:10:11;;;;;;;23.67;7.00;;;;;;;16.92;62.24;99579.30;1699413;84;20991;-63
2021/11/29 05:12:38;;;;;;;25.70;7.33;;;;;;;16.93;62.26;99564.39;1697809;83;20951;-61
2021/11/29 05:15:06;;;;;;;26.05;7.85;;;;;;;16.94;62.25;99559.48;1697902;83;20995;-63
2021/11/29 05:17:32;;;;;;;24.82;6.55;;;;;;;16.94;62.22;99561.66;1698013;83;21062;-62
2021/11/29 05:19:59;;;;;;;19.75;7.30;;;;;;;16.95;62.21;99550.67;1697854;83;20963;-69
2021/11/29 05:22:26;;;;;;;30.20;8.00;;;;;;;16.95;62.24;99539.70;1699062;83;21029;-61
2021/11/29 05:24:53;;;;;;;31.97;7.55;;;;;;;16.96;62.18;99543.18;1700712;84;21010;-66
2021/11/29 05:27:19;;;;;;;26.82;6.90;;;;;;;16.96;62.19;99537.42;1731878;82;21007;-65
2021/11/29 05:29:46;;;;;;;33.02;8.00;;;;;;;16.97;62.19;99540.91;1724922;81;21507;-64
2021/11/29 05:32:12;;;;;;;22.55;7.78;;;;;;;16.97;62.14;99543.07;1732573;81;20983;-60
2021/11/29 05:34:39;;;;;;;25.10;6.22;;;;;;;16.97;62.13;99540.44;1733382;81;21030;-67
2021/11/29 05:37:05;;;;;;;25.55;8.53;;;;;;;16.98;62.14;99542.61;1696772;84;21030;-61
2021/11/29 05:39:32;;;;;;;21.40;7.15;;;;;;;16.98;62.08;99536.85;1691845;84;21579;-59
2021/11/29 05:41:58;;;;;;;23.92;7.30;;;;;;;16.98;62.05;99540.80;1697817;83;21077;-59
2021/11/29 05:44:25;;;;;;;22.32;7.55;;;;;;;16.99;62.06;99541.64;1699597;83;21093;-68
2021/11/29 05:46:51;;;;;;;31.40;7.20;;;;;;;16.98;62.05;99517.64;1700825;84;20986;-63
2021/11/29 05:51:42;;;;;;;23.73;7.45;;;;;;;17.05;62.06;99522.83;1810427;79;22992;-61
2021/11/29 05:54:09;;;;;;;29.63;7.65;;;;;;;17.00;62.05;99523.14;1771214;80;21720;-62
2021/11/29 05:56:35;;;;;;;24.90;6.62;;;;;;;17.03;62.02;99512.90;1772179;80;21026;-59
2021/11/29 05:59:01;;;;;;;21.82;6.55;;;;;;;17.03;62.00;99516.84;1780983;80;21021;-65
2021/11/29 06:01:28;;;;;;;23.40;7.92;;;;;;;17.04;61.94;99506.72;1785394;80;21503;-67
2021/11/29 06:03:55;;;;;;;24.35;7.37;;;;;;;17.05;61.92;99503.13;1787391;80;21025;-68
2021/11/29 06:06:22;;;;;;;26.55;6.90;;;;;;;17.07;61.90;99505.17;1776682;80;20970;-64
2021/11/29 06:08:49;;;;;;;25.32;7.30;;;;;;;17.09;61.78;99496.71;1775743;80;21023;-60
2021/11/29 06:11:16;;;;;;;22.02;7.53;;;;;;;17.12;61.72;99495.20;1790011;80;21550;-63
2021/11/29 06:13:44;;;;;;;23.92;7.78;;;;;;;17.13;61.65;99480.25;1791647;80;21517;-62
2021/11/29 06:16:13;;;;;;;19.48;7.20;;;;;;;17.14;61.57;99480.17;1776460;80;21526;-62
2021/11/29 06:18:39;;;;;;;26.85;7.80;;;;;;;17.15;61.51;99476.58;1776033;80;21557;-65
2021/11/29 06:21:06;;;;;;;33.63;8.73;;;;;;;17.17;61.51;99485.66;1779183;80;20998;-61
2021/11/29 06:23:32;;;;;;;25.70;8.08;;;;;;;17.18;61.46;99461.92;1788978;80;21029;-64
2021/11/29 06:25:59;;;;;;;23.62;6.80;;;;;;;17.19;61.44;99472.80;1792620;80;20955;-65
2021/11/29 06:28:27;;;;;;;17.12;5.62;;;;;;;17.20;61.38;99473.17;1793741;80;21573;-64
2021/11/29 06:30:54;;;;;;;27.35;7.87;;;;;;;17.22;61.37;99461.23;1774991;80;21034;-60
2021/11/29 06:33:23;;;;;;;27.15;7.10;;;;;;;17.23;61.33;99455.04;1775673;80;21526;-62
2021/11/29 06:35:51;;;;;;;22.32;7.47;;;;;;;17.24;61.28;99445.72;1781318;80;20990;-65
2021/11/29 06:38:17;;;;;;;24.72;7.17;;;;;;;17.27;61.17;99442.05;1790903;80;21585;-58
2021/11/29 06:40:49;;;;;;;21.42;6.33;;;;;;;17.27;61.06;99433.66;1776226;80;21005;-60
2021/11/29 06:43:18;;;;;;;27.73;7.75;;;;;;;17.29;60.94;99430.95;1776115;80;21573;-62
2021/11/29 06:45:44;;;;;;;25.82;7.22;;;;;;;17.29;60.86;99419.94;1778594;80;21514;-64
2021/11/29 06:48:11;;;;;;;24.72;6.95;;;;;;;17.30;60.73;99404.55;1793237;80;21490;-65
2021/11/29 06:50:38;;;;;;;37.28;8.03;;;;;;;17.34;60.66;99402.53;1771550;80;21058;-57
2021/11/29 06:53:05;;;;;;;24.10;7.25;;;;;;;17.35;60.49;99405.05;1772158;81;21054;-62
2021/11/29 06:55:32;;;;;;;24.87;7.87;;;;;;;17.36;60.34;99388.34;1770549;81;21003;-59
2021/11/29 06:58:00;;;;;;;29.98;7.87;;;;;;;17.37;60.23;99378.17;1769083;81;21050;-63
2021/11/29 07:00:27;;;;;;;25.02;7.45;;;;;;;17.38;60.17;99368.03;1772123;81;21002;-63
2021/11/29 07:02:53;;;;;;;19.92;7.03;;;;;;;17.40;60.01;99378.43;1770030;81;21495;-63
2021/11/29 07:05:21;;;;;;;20.55;6.75;;;;;;;17.42;59.95;99363.38;1767673;81;21085;-62
2021/11/29 07:07:50;;;;;;;23.67;7.55;;;;;;;17.42;59.80;99364.23;1766818;81;21018;-63
2021/11/29 07:10:17;;;;;;;21.60;7.22;;;;;;;17.43;59.75;99369.88;1765851;81;21070;-61
2021/11/29 07:12:47;;;;;;;24.43;7.00;;;;;;;17.44;59.80;99370.22;1761130;81;20999;-62
2021/11/29 07:15:14;;;;;;;30.60;7.80;;;;;;;17.44;60.03;99392.57;1767079;81;21052;-65
2021/11/29 07:17:41;;;;;;;29.98;8.13;;;;;;;17.44;60.37;99407.03;1766853;81;21066;-63
2021/11/29 07:20:09;;;;;;;33.88;8.35;;;;;;;17.42;60.85;99408.09;1766968;81;20999;-62
2021/11/29 07:22:36;;;;;;;31.48;9.13;;;;;;;17.40;61.21;99409.52;1767658;81;21015;-64
2021/11/29 07:25:04;;;;;;;35.92;10.72;;;;;;;17.37;61.45;99397.07;1770734;81;21618;-66
2021/11/29 07:27:32;;;;;;;34.23;9.18;;;;;;;17.33;61.63;99380.65;1766103;81;21495;-68
2021/11/29 07:30:02;;;;;;;28.23;8.88;;;;;;;17.32;61.73;99378.14;1765985;81;21043;-61
2021/11/29 07:32:29;;;;;;;30.45;9.85;;;;;;;17.31;61.73;99372.03;1765649;81;21002;-65
2021/11/29 07:34:56;;;;;;;32.42;8.05;;;;;;;17.29;61.75;99371.30;1766520;81;21002;-70
2021/11/29 07:37:23;;;;;;;25.08;8.60;;;;;;;17.29;61.72;99368.67;1766887;81;20995;-63
2021/11/29 07:39:51;;;;;;;32.90;8.98;;;;;;;17.27;61.75;99370.56;1768068;81;21479;-69
2021/11/29 07:42:18;;;;;;;32.90;9.75;;;;;;;17.28;61.64;99370.95;1764968;81;20955;-63
2021/11/29 07:44:45;;;;;;;28.47;8.30;;;;;;;17.29;61.59;99368.67;1767951;81;21070;-64
2021/11/29 07:47:11;;;;;;;29.25;9.45;;;;;;;17.30;61.58;99362.95;1768249;81;20975;-66
2021/11/29 07:49:39;;;;;;;29.35;8.38;;;;;;;17.31;61.52;99349.69;1730276;81;21539;-64
2021/11/29 07:52:08;;;;;;;26.80;9.55;;;;;;;17.34;61.38;99344.69;1763157;81;21050;-60
2021/11/29 07:54:35;;;;;;;35.45;10.03;;;;;;;17.34;61.36;99348.16;1759573;80;21594;-67
2021/11/29 07:57:02;;;;;;;27.42;9.15;;;;;;;17.35;61.25;99336.69;1762493;81;21031;-70
2021/11/29 07:59:29;;;;;;;28.77;8.98;;;;;;;17.37;61.18;99333.97;1764877;81;21055;-62
2021/11/29 08:01:58;;;;;;;26.10;8.85;;;;;;;17.38;61.08;99322.48;1765301;81;21054;-61
2021/11/29 08:04:26;;;;;;;35.25;10.05;;;;;;;17.40;60.98;99313.54;1764511;81;21018;-68
2021/11/29 08:06:53;;;;;;;39.50;11.40;;;;;;;17.42;60.89;99306.84;1764734;81;21054;-67
2021/11/29 08:09:20;;;;;;;32.80;9.85;;;;;;;17.44;60.83;99302.31;1766684;81;21018;-64
2021/11/29 08:11:46;;;;;;;39.27;10.15;;;;;;;17.47;60.85;99301.64;1775589;81;21011;-59
2021/11/29 08:14:13;;;;;;;27.48;9.63;;;;;;;17.50;60.79;99305.84;1775716;81;21045;-61
2021/11/29 08:16:39;;;;;;;27.35;9.18;;;;;;;17.52;60.63;99286.38;1770995;81;21033;-61
2021/11/29 08:19:06;;;;;;;30.48;8.95;;;;;;;17.55;60.46;99280.91;1776356;81;21053;-68
2021/11/29 08:21:33;;;;;;;26.50;8.38;;;;;;;17.57;60.28;99284.27;1779219;81;21014;-59
2021/11/29 08:24:00;;;;;;;31.35;9.43;;;;;;;17.59;60.16;99273.16;1761097;81;21027;-60
2021/11/29 08:26:28;;;;;;;28.27;9.10;;;;;;;17.60;60.15;99270.03;1774717;81;21558;-59
2021/11/29 08:35:41;;;;;;;25.85;9.35;;;;;;;17.64;59.80;99246.02;1761739;81;21014;-62
2021/11/29 08:38:08;;;;;;;27.77;9.20;;;;;;;17.63;59.80;99231.20;1774895;80;21054;-64
2021/11/29 08:40:35;;;;;;;19.57;8.30;;;;;;;17.64;59.81;99222.34;1775800;81;20975;-63
2021/11/29 08:43:06;;;;;;;27.75;9.38;;;;;;;17.64;59.69;99211.83;1760904;81;21067;-63
2021/11/29 08:45:34;;;;;;;28.75;8.80;;;;;;;17.64;59.68;99201.30;1695087;84;21007;-61
2021/11/29 08:48:03;;;;;;;26.48;9.95;;;;;;;17.67;59.69;99184.46;1696799;84;21090;-58
2021/11/29 08:50:29;;;;;;;22.22;8.65;;;;;;;17.68;59.58;99182.20;1700002;83;21094;-60
2021/11/29 08:53:02;;;;;;;29.35;9.43;;;;;;;17.68;59.54;99179.08;1697277;83;21055;-57
2021/11/29 08:55:29;;;;;;;24.57;9.60;;;;;;;17.69;59.49;99177.29;1695118;83;21031;-62
2021/11/29 08:57:56;;;;;;;28.87;10.58;;;;;;;17.72;59.50;99159.47;1696927;84;21103;-61
2021/11/29 09:00:22;;;;;;;29.35;9.60;;;;;;;17.76;59.53;99156.97;1701670;83;21484;-59
2021/11/29 09:02:49;;;;;;;28.73;9.50;;;;;;;17.81;59.40;99150.89;1699844;83;21519;-63
2021/11/29 09:05:17;;;;;;;33.00;10.15;;;;;;;17.86;59.39;99143.50;1699462;84;21136;-58
2021/11/29 09:07:45;;;;;;;28.52;10.72;;;;;;;17.93;59.35;99121.97;1698039;84;21206;-57
2021/11/29 09:10:13;;;;;;;24.00;9.23;;;;;;;18.00;59.28;99108.20;1696203;84;21059;-57
2021/11/29 09:12:40;;;;;;;29.95;10.25;;;;;;;18.07;59.06;99109.89;1696133;84;21031;-62
2021/11/29 09:15:10;;;;;;;33.18;10.10;;;;;;;18.12;58.64;99095.88;1696479;83;21015;-55
2021/11/29 09:17:38;;;;;;;30.27;10.35;;;;;;;18.16;58.39;99092.88;1697080;83;20995;-56
2021/11/29 09:20:07;;;;;;;27.95;10.08;;;;;;;18.20;58.22;99072.41;1697042;84;21039;-61
2021/11/29 09:22:34;;;;;;;33.33;11.38;;;;;;;18.25;58.04;99075.53;1693161;84;21014;-60
2021/11/29 09:25:04;;;;;;;28.20;10.80;;;;;;;18.29;57.79;99054.11;1699285;84;21035;-59
2021/11/29 09:27:31;;;;;;;35.98;9.83;;;;;;;18.32;57.56;99041.19;1698827;84;21574;-55
2021/11/29 09:29:57;;;;;;;39.33;10.23;;;;;;;18.35;57.44;99024.64;1649136;87;21156;-61
2021/11/29 09:32:24;;;;;;;31.75;11.08;;;;;;;18.40;57.52;99021.65;1698556;83;21082;-58
2021/11/29 09:34:51;;;;;;;30.52;11.05;;;;;;;18.45;57.37;99006.33;1700363;83;21035;-57
2021/11/29 09:37:21;;;;;;;29.52;10.60;;;;;;;18.48;57.05;99015.31;1699360;84;20999;-56
2021/11/29 09:39:48;;;;;;;28.50;10.65;;;;;;;18.52;56.85;99014.09;1693727;84;21063;-57
2021/11/29 09:42:14;;;;;;;31.15;9.90;;;;;;;18.52;56.66;98996.98;1731836;81;21061;-63
2021/11/29 09:44:41;;;;;;;29.10;9.45;;;;;;;18.53;56.48;98985.46;1763871;80;21027;-61
2021/11/29 09:47:10;;;;;;;34.60;10.20;;;;;;;18.53;56.47;98985.46;1779470;81;21089;-56
2021/11/29 09:49:37;;;;;;;34.92;11.30;;;;;;;18.51;56.38;98986.07;1766227;80;21569;-56
2021/11/29 09:52:05;;;;;;;27.58;9.60;;;;;;;18.49;56.30;98981.41;1765236;81;21073;-62
2021/11/29 09:54:33;;;;;;;21.07;9.25;;;;;;;18.48;56.23;98991.61;1770324;81;20987;-58
2021/11/29 09:56:59;;;;;;;35.40;9.18;;;;;;;18.46;56.24;98957.98;1760589;81;21020;-59
2021/11/29 09:59:27;;;;;;;36.15;10.58;;;;;;;18.44;56.46;98958.58;1763533;81;21018;-61
2021/11/29 10:01:54;;;;;;;28.67;10.65;;;;;;;18.42;56.89;98945.98;1761211;81;20939;-56
2021/11/29 10:04:22;;;;;;;30.10;10.75;;;;;;;18.39;57.18;98960.23;1767628;81;21014;-55
2021/11/29 10:06:59;;;;;;;29.37;9.68;;;;;;;18.37;57.35;98953.41;1765728;81;21515;-59
2021/11/29 10:09:31;;;;;;;36.42;10.85;;;;;;;18.34;57.29;98945.78;1761178;80;21077;-61
2021/11/29 10:12:04;;;;;;;;;;;;;;;18.29;57.40;98936.94;1769380;81;21018;-55
2021/11/29 10:14:31;;;;;;;28.70;9.73;;;;;;;18.25;57.59;98936.83;1766100;80;20100;-59
2021/11/29 10:16:59;;;;;;;37.05;11.00;;;;;;;18.21;57.70;98935.89;1770338;80;21050;-55
2021/11/29 10:19:34;;;;;;;49.15;11.78;;;;;;;18.18;57.90;98925.59;1763805;80;21042;-56
2021/11/29 10:22:18;;;;;;;42.13;11.93;;;;;;;18.15;58.07;98924.55;1763639;81;20998;-60
2021/11/29 10:24:47;;;;;;;38.85;12.43;;;;;;;18.13;58.09;98938.31;1769777;81;21106;-58
2021/11/29 10:27:14;;;;;;;33.65;11.60;;;;;;;18.10;58.09;98951.23;1757996;81;21534;-70
2021/11/29 10:29:52;;;;;;;36.13;12.78;;;;;;;18.07;58.74;98957.23;1710202;84;21058;-71
2021/11/29 10:32:34;;;;;;;37.17;10.70;;;;;;;18.02;59.22;98962.02;1716401;83;21030;-56
2021/11/29 10:35:00;;;;;;;35.33;12.18;;;;;;;17.97;59.62;98955.80;1643957;86;21015;-57
2021/11/29 10:37:30;;;;;;;37.35;11.57;;;;;;;17.96;60.01;98974.34;1643621;86;21089;-56
2021/11/29 10:39:56;;;;;;;32.80;12.05;;;;;;;17.95;60.24;98967.43;1647626;86;21050;-60
2021/11/29 10:42:26;;;;;;;43.58;11.55;;;;;;;17.97;60.42;98977.35;1646643;86;21066;-65
2021/11/29 10:44:54;;;;;;;37.00;10.63;;;;;;;17.99;60.30;98962.28;1599360;90;21066;-62
2021/11/29 10:47:22;;;;;;;34.20;10.53;;;;;;;17.98;60.21;98952.22;1599031;90;21082;-64
2021/11/29 10:49:52;;;;;;;40.15;13.53;;;;;;;18.00;60.18;98958.67;1599068;90;21083;-59
2021/11/29 10:52:29;;;;;;;48.98;13.75;;;;;;;17.99;60.15;98933.33;1522999;94;21107;-58
2021/11/29 10:54:57;;;;;;;46.48;13.20;;;;;;;18.00;60.14;98927.94;1465919;98;21074;-57
2021/11/29 10:57:24;;;;;;;38.65;12.45;;;;;;;18.01;60.02;98940.63;1466068;98;21095;-57
2021/11/29 10:59:53;;;;;;;42.80;14.05;;;;;;;18.05;60.14;98915.72;1466146;98;21106;-57
2021/11/29 11:02:23;;;;;;;38.55;12.07;;;;;;;18.07;60.41;98907.22;1466065;98;21121;-57
2021/11/29 11:05:09;;;;;;;36.08;10.10;;;;;;;18.12;60.54;98907.20;1466036;98;21546;-57
2021/11/29 11:07:38;;;;;;;30.08;11.00;;;;;;;18.15;60.68;98911.37;1423312;99;21144;-57
2021/11/29 11:17:11;;;;;;;26.48;9.73;;;;;;;18.40;61.19;98897.88;1477732;96;21627;-56
2021/11/29 11:19:55;;;;;;;25.23;10.23;;;;;;;18.49;61.11;98894.02;1476701;96;21093;-57
2021/11/29 11:22:33;;;;;;;30.90;9.68;;;;;;;18.57;61.02;98903.44;1473843;96;21094;-56
2021/11/29 11:25:12;;;;;;;24.98;9.13;;;;;;;18.66;60.83;98932.13;1470221;98;21076;-61
2021/11/29 11:27:46;;;;;;;44.70;13.55;;;;;;;18.75;60.73;98935.33;1466459;98;21161;-63
2021/11/29 11:30:17;;;;;;;52.78;14.30;;;;;;;18.80;59.97;98914.68;1503062;94;21102;-57
2021/11/29 11:32:58;;;;;;;41.00;12.63;;;;;;;18.86;59.68;98933.92;1490523;96;21622;-57
2021/11/29 11:35:31;;;;;;;47.40;13.58;;;;;;;18.89;59.56;98958.72;1475790;96;21194;-57
2021/11/29 11:38:05;;;;;;;43.02;11.35;;;;;;;18.92;59.36;98959.77;1517937;94;21614;-60
2021/11/29 11:40:35;;;;;;;33.48;10.28;;;;;;;18.95;59.36;98962.63;1491926;96;21114;-57
2021/11/29 11:43:04;;;;;;;17.15;7.08;;;;;;;18.99;59.51;98960.94;1478141;96;21114;-55
2021/11/29 11:45:35;;;;;;;18.92;6.50;;;;;;;19.05;59.71;98963.52;1477503;96;22282;-59